Time;durP1;ratioP1;P1;durP2;ratioP2;P2;SDS_P1;SDS_P2;PMS_P1;PMS_P2;Temp;Humidity;BMP_temperature;BMP_pressure;BME280_temperature;BME280_humidity;BME280_pressure;Samples;Min_cycle;Max_cycle;Signal;HPM_P1;HPM_P2
2021/10/24 00:00:00;;;;;;;3.20;1.83;;;7.90;99.90;;;;;;5054546;28;20033;-71
2021/10/24 00:02:27;;;;;;;0.30;0.30;;;7.90;99.90;;;;;;5062517;28;20032;-71
2021/10/24 00:04:53;;;;;;;0.57;0.57;;;8.00;99.90;;;;;;5065605;28;20020;-71
2021/10/24 00:07:18;;;;;;;0.43;0.43;;;7.90;99.90;;;;;;5068423;28;20107;-71
2021/10/24 00:09:44;;;;;;;0.30;0.30;;;8.00;99.90;;;;;;5074376;28;20024;-71
2021/10/24 00:12:09;;;;;;;0.28;0.28;;;8.00;99.90;;;;;;5068086;28;20504;-71
2021/10/24 00:14:35;;;;;;;0.70;0.70;;;8.00;99.90;;;;;;5068621;28;20025;-71
2021/10/24 00:17:00;;;;;;;1.95;0.75;;;8.10;99.90;;;;;;5060615;28;20108;-71
2021/10/24 00:19:26;;;;;;;0.65;0.47;;;8.00;99.90;;;;;;5062341;28;20545;-71
2021/10/24 00:21:51;;;;;;;0.35;0.35;;;8.10;99.90;;;;;;5068354;28;20034;-71
2021/10/24 00:24:17;;;;;;;0.45;0.45;;;8.10;99.90;;;;;;5068100;28;20045;-70
2021/10/24 00:26:42;;;;;;;0.95;0.88;;;8.10;99.90;;;;;;5067870;28;20446;-71
2021/10/24 00:29:08;;;;;;;1.27;0.77;;;8.10;99.90;;;;;;5066281;28;20519;-71
2021/10/24 00:31:34;;;;;;;0.10;0.10;;;8.10;99.90;;;;;;5067848;28;20395;-71
2021/10/24 00:33:59;;;;;;;0.50;0.30;;;8.10;99.90;;;;;;5067850;28;20081;-71
2021/10/24 00:36:25;;;;;;;0.10;0.10;;;8.10;99.90;;;;;;5068338;28;20028;-72
2021/10/24 00:38:51;;;;;;;1.55;0.80;;;8.10;99.90;;;;;;5066080;28;20039;-71
2021/10/24 00:41:17;;;;;;;1.20;0.77;;;8.20;99.90;;;;;;5056766;28;20120;-70
2021/10/24 00:43:42;;;;;;;0.52;0.52;;;8.20;99.90;;;;;;5067330;28;20530;-71
2021/10/24 00:46:08;;;;;;;0.63;0.63;;;8.20;99.90;;;;;;5067766;28;20107;-72
2021/10/24 00:48:34;;;;;;;0.40;0.40;;;8.20;99.90;;;;;;5067589;28;20119;-71
2021/10/24 00:50:59;;;;;;;0.93;0.93;;;8.20;99.90;;;;;;5062502;28;20020;-71
2021/10/24 00:53:25;;;;;;;4.38;1.10;;;8.20;99.90;;;;;;5063343;28;20506;-71
2021/10/24 00:55:52;;;;;;;0.43;0.43;;;8.20;99.90;;;;;;5060097;28;20052;-71
2021/10/24 00:58:19;;;;;;;0.25;0.25;;;8.20;99.90;;;;;;5068280;28;20498;-71
2021/10/24 01:00:44;;;;;;;0.35;0.35;;;8.20;99.90;;;;;;5060446;28;20492;-71
2021/10/24 01:03:10;;;;;;;0.22;0.22;;;8.10;99.90;;;;;;5050445;28;20013;-71
2021/10/24 01:05:36;;;;;;;0.57;0.57;;;8.10;99.90;;;;;;5070804;28;20023;-71
2021/10/24 01:08:02;;;;;;;0.60;0.60;;;8.00;99.90;;;;;;5069885;28;20032;-71
2021/10/24 01:10:48;;;;;;;0.73;0.73;;;8.10;99.90;;;;;;5060230;28;20502;-71
2021/10/24 01:13:14;;;;;;;0.40;0.40;;;8.10;99.90;;;;;;5063398;28;20619;-71
2021/10/24 01:15:39;;;;;;;1.63;1.52;;;8.00;99.90;;;;;;5060104;28;20047;-71
2021/10/24 01:18:07;;;;;;;1.15;1.02;;;8.00;99.90;;;;;;5066702;28;20029;-71
2021/10/24 01:20:33;;;;;;;0.45;0.40;;;8.00;99.90;;;;;;5065754;28;20032;-71
2021/10/24 01:22:58;;;;;;;0.13;0.13;;;7.90;99.90;;;;;;5057558;28;20039;-71
2021/10/24 01:25:24;;;;;;;0.85;0.75;;;7.90;99.90;;;;;;5053956;28;20053;-70
2021/10/24 01:27:53;;;;;;;0.22;0.22;;;7.80;99.90;;;;;;5071685;28;20161;-71
2021/10/24 01:30:19;;;;;;;0.45;0.45;;;7.80;99.90;;;;;;5065288;28;20032;-70
2021/10/24 01:32:45;;;;;;;0.80;0.80;;;7.80;99.90;;;;;;5065019;28;20062;-71
2021/10/24 01:35:11;;;;;;;3.85;2.22;;;7.70;99.90;;;;;;5064155;28;20035;-71
2021/10/24 01:37:39;;;;;;;1.05;1.05;;;7.80;99.90;;;;;;5069592;28;20719;-71
2021/10/24 01:40:08;;;;;;;0.98;0.95;;;7.70;99.90;;;;;;5075453;28;20037;-71
2021/10/24 01:42:35;;;;;;;1.55;1.20;;;7.70;99.90;;;;;;5064674;28;20052;-71
2021/10/24 01:45:08;;;;;;;3.25;1.45;;;7.70;99.90;;;;;;5061432;28;20028;-71
2021/10/24 01:47:33;;;;;;;3.75;2.70;;;7.70;99.90;;;;;;5070229;28;20032;-71
2021/10/24 01:49:59;;;;;;;0.75;0.60;;;7.70;99.90;;;;;;5062481;28;20082;-71
2021/10/24 01:52:24;;;;;;;0.40;0.40;;;7.60;99.90;;;;;;5068259;28;20032;-71
2021/10/24 01:54:50;;;;;;;0.65;0.65;;;7.50;99.90;;;;;;5054031;28;20037;-71
2021/10/24 01:57:15;;;;;;;1.50;0.77;;;7.50;99.90;;;;;;5061074;28;20021;-71
2021/10/24 01:59:41;;;;;;;1.50;1.40;;;7.40;99.90;;;;;;5069674;28;20032;-71
2021/10/24 02:02:07;;;;;;;0.50;0.50;;;7.40;99.90;;;;;;5063491;28;20033;-71
2021/10/24 02:04:33;;;;;;;3.17;1.85;;;7.30;99.90;;;;;;5066060;28;20399;-71
2021/10/24 02:06:58;;;;;;;12.85;1.83;;;7.30;99.90;;;;;;5067328;28;20391;-70
2021/10/24 02:09:23;;;;;;;0.52;0.52;;;7.20;99.90;;;;;;5063358;28;20090;-71
2021/10/24 02:11:49;;;;;;;1.17;1.05;;;7.10;99.90;;;;;;5060915;28;20021;-71
2021/10/24 02:14:14;;;;;;;3.65;2.00;;;7.10;99.90;;;;;;5059009;28;20025;-71
2021/10/24 02:16:40;;;;;;;2.63;2.15;;;7.00;99.90;;;;;;5062050;28;20438;-71
2021/10/24 02:19:05;;;;;;;2.42;1.67;;;7.00;99.90;;;;;;5065523;28;20025;-70
2021/10/24 02:21:31;;;;;;;0.30;0.30;;;7.00;99.90;;;;;;5068442;28;20103;-71
2021/10/24 02:23:56;;;;;;;2.15;1.52;;;7.00;99.90;;;;;;5058283;28;20483;-70
2021/10/24 02:26:22;;;;;;;1.25;0.98;;;6.90;99.90;;;;;;5068013;28;20020;-71
2021/10/24 02:28:47;;;;;;;17.73;1.58;;;6.90;99.90;;;;;;5059989;28;20404;-71
2021/10/24 02:31:13;;;;;;;0.90;0.90;;;6.90;99.90;;;;;;5067653;28;20032;-71
2021/10/24 02:33:38;;;;;;;0.82;0.52;;;6.80;99.90;;;;;;5068536;28;20116;-71
2021/10/24 02:36:04;;;;;;;1.58;1.42;;;6.80;99.90;;;;;;5066530;28;20031;-70
2021/10/24 02:38:29;;;;;;;1.63;1.52;;;6.70;99.90;;;;;;5057873;28;20363;-71
2021/10/24 02:40:55;;;;;;;2.25;2.05;;;6.70;99.90;;;;;;5066750;28;20029;-71
2021/10/24 02:43:20;;;;;;;0.77;0.77;;;6.60;99.90;;;;;;5066137;28;20497;-71
2021/10/24 02:45:46;;;;;;;1.13;1.13;;;6.60;99.90;;;;;;5065763;28;20020;-70
2021/10/24 02:48:11;;;;;;;1.02;1.00;;;6.70;99.90;;;;;;5057457;28;20024;-71
2021/10/24 02:50:37;;;;;;;3.05;2.50;;;6.60;99.90;;;;;;5066940;28;20073;-71
2021/10/24 02:53:02;;;;;;;1.15;1.13;;;6.50;99.90;;;;;;5056632;28;20035;-72
2021/10/24 02:55:28;;;;;;;1.77;1.27;;;6.50;99.90;;;;;;5066921;28;20390;-71
2021/10/24 02:57:56;;;;;;;1.88;1.70;;;6.50;99.90;;;;;;5065938;28;20617;-71
2021/10/24 03:00:21;;;;;;;1.13;0.77;;;6.50;99.90;;;;;;5064357;28;20033;-71
2021/10/24 03:02:47;;;;;;;1.00;0.95;;;6.40;99.90;;;;;;5067418;28;20024;-71
2021/10/24 03:05:12;;;;;;;1.67;1.58;;;6.30;99.90;;;;;;5067492;28;20024;-71
2021/10/24 03:07:38;;;;;;;0.65;0.65;;;6.30;99.90;;;;;;5059507;28;20372;-71
2021/10/24 03:10:05;;;;;;;1.35;1.20;;;6.30;99.90;;;;;;5059937;28;20028;-71
2021/10/24 03:12:30;;;;;;;0.50;0.50;;;6.20;99.90;;;;;;5066199;28;20021;-71
2021/10/24 03:14:56;;;;;;;1.30;1.13;;;6.20;99.90;;;;;;5065725;28;20485;-70
2021/10/24 03:17:21;;;;;;;0.80;0.80;;;6.20;99.90;;;;;;5053252;28;20024;-71
2021/10/24 03:19:47;;;;;;;2.25;1.60;;;6.20;99.90;;;;;;5060951;28;20441;-71
2021/10/24 03:22:12;;;;;;;0.65;0.65;;;6.10;99.90;;;;;;5065100;28;20112;-70
2021/10/24 03:24:38;;;;;;;1.45;0.57;;;6.10;99.90;;;;;;5058704;28;20262;-70
2021/10/24 03:27:04;;;;;;;1.30;1.20;;;6.10;99.90;;;;;;5066585;28;20055;-69
2021/10/24 03:29:29;;;;;;;0.85;0.55;;;6.10;99.90;;;;;;5065895;28;20458;-70
2021/10/24 03:31:55;;;;;;;0.70;0.70;;;6.10;99.90;;;;;;5059277;28;20081;-69
2021/10/24 03:34:21;;;;;;;0.85;0.85;;;6.10;99.90;;;;;;5057859;28;20072;-69
2021/10/24 03:36:46;;;;;;;0.22;0.22;;;6.00;99.90;;;;;;5064435;28;20495;-70
2021/10/24 03:39:12;;;;;;;0.77;0.77;;;6.10;99.90;;;;;;5067111;28;20035;-70
2021/10/24 03:41:38;;;;;;;0.85;0.85;;;6.10;99.90;;;;;;5061735;28;20025;-69
2021/10/24 03:44:03;;;;;;;0.57;0.57;;;6.10;99.90;;;;;;5054791;28;20100;-69
2021/10/24 03:46:31;;;;;;;0.50;0.50;;;6.10;99.90;;;;;;5059866;28;20122;-72
2021/10/24 03:48:57;;;;;;;1.08;1.02;;;6.10;99.90;;;;;;5068292;28;20108;-71
2021/10/24 03:51:23;;;;;;;0.57;0.57;;;6.20;99.90;;;;;;5063707;28;20039;-72
2021/10/24 03:53:48;;;;;;;0.55;0.55;;;6.20;99.90;;;;;;5061581;28;20119;-71
2021/10/24 03:56:14;;;;;;;0.93;0.90;;;6.30;99.90;;;;;;5060404;28;20024;-71
2021/10/24 03:58:39;;;;;;;1.05;0.95;;;6.30;99.90;;;;;;5064725;28;20036;-71
2021/10/24 04:01:05;;;;;;;0.15;0.15;;;6.30;99.90;;;;;;5064710;28;20028;-71
2021/10/24 04:03:32;;;;;;;3.10;0.90;;;6.30;99.90;;;;;;5059123;28;20463;-72
2021/10/24 04:05:58;;;;;;;1.27;0.85;;;6.40;99.90;;;;;;5065755;28;20392;-72
2021/10/24 04:08:23;;;;;;;0.22;0.22;;;6.40;99.90;;;;;;5058548;28;20028;-71
2021/10/24 04:10:49;;;;;;;0.20;0.20;;;6.40;99.90;;;;;;5058188;28;20024;-71
2021/10/24 04:13:14;;;;;;;0.40;0.40;;;6.50;99.90;;;;;;5056437;28;20036;-71
2021/10/24 04:15:40;;;;;;;0.38;0.38;;;6.60;99.90;;;;;;5053510;28;20545;-72
2021/10/24 04:18:06;;;;;;;1.38;1.10;;;6.60;99.90;;;;;;5060089;28;20108;-72
2021/10/24 04:20:31;;;;;;;0.45;0.45;;;6.60;99.90;;;;;;5065448;28;20040;-71
2021/10/24 04:22:57;;;;;;;2.40;1.35;;;6.70;99.90;;;;;;5059580;28;20151;-71
2021/10/24 04:25:24;;;;;;;0.22;0.22;;;6.70;99.90;;;;;;5056733;28;20041;-72
2021/10/24 04:27:50;;;;;;;1.08;1.00;;;6.80;99.90;;;;;;5065175;28;20034;-72
2021/10/24 04:30:16;;;;;;;0.30;0.30;;;6.80;99.90;;;;;;5062532;28;20107;-72
2021/10/24 04:32:43;;;;;;;0.40;0.40;;;6.80;99.90;;;;;;5066852;28;20070;-70
2021/10/24 04:35:09;;;;;;;0.35;0.35;;;6.90;99.90;;;;;;5058173;28;20471;-72
2021/10/24 04:37:36;;;;;;;0.63;0.63;;;6.80;99.90;;;;;;5056959;28;20402;-71
2021/10/24 04:40:03;;;;;;;0.32;0.32;;;6.80;99.90;;;;;;5070870;28;20020;-71
2021/10/24 04:42:28;;;;;;;0.20;0.20;;;6.80;99.90;;;;;;5063887;28;20471;-71
2021/10/24 04:44:55;;;;;;;0.85;0.85;;;6.80;99.90;;;;;;5065685;28;20032;-72
2021/10/24 04:47:20;;;;;;;1.65;1.10;;;6.80;99.90;;;;;;5061563;28;20056;-71
2021/10/24 04:49:46;;;;;;;0.47;0.47;;;6.80;99.90;;;;;;5065943;28;20078;-72
2021/10/24 04:52:11;;;;;;;0.73;0.45;;;6.80;99.90;;;;;;5068647;28;20028;-71
2021/10/24 04:54:37;;;;;;;0.32;0.30;;;6.80;99.90;;;;;;5047166;28;20116;-72
2021/10/24 04:57:03;;;;;;;1.38;1.27;;;6.80;99.90;;;;;;5063712;28;20423;-72
2021/10/24 04:59:28;;;;;;;0.30;0.30;;;6.70;99.90;;;;;;5066846;28;20024;-72
2021/10/24 05:01:54;;;;;;;0.60;0.60;;;6.70;99.90;;;;;;5059939;28;20033;-71
2021/10/24 05:04:19;;;;;;;1.50;0.68;;;6.70;99.90;;;;;;5051587;28;20029;-72
2021/10/24 05:06:45;;;;;;;0.85;0.85;;;6.60;99.90;;;;;;5055589;28;20515;-71
2021/10/24 05:09:10;;;;;;;0.90;0.82;;;6.60;99.90;;;;;;5063835;28;20578;-72
2021/10/24 05:11:36;;;;;;;0.20;0.20;;;6.50;99.90;;;;;;5064903;28;20487;-71
2021/10/24 05:14:03;;;;;;;0.60;0.60;;;6.40;99.90;;;;;;5065670;28;20020;-71
2021/10/24 05:16:29;;;;;;;1.65;1.35;;;6.40;99.90;;;;;;5061533;28;20024;-71
2021/10/24 05:18:55;;;;;;;0.98;0.52;;;6.30;99.90;;;;;;5064361;28;20095;-71
2021/10/24 05:21:21;;;;;;;1.10;1.00;;;6.30;99.90;;;;;;5068056;28;20017;-72
2021/10/24 05:23:46;;;;;;;1.08;1.00;;;6.20;99.90;;;;;;5065823;28;20044;-72
2021/10/24 05:26:12;;;;;;;0.10;0.10;;;6.10;99.90;;;;;;5063937;28;20454;-72
2021/10/24 05:28:37;;;;;;;0.75;0.75;;;6.10;99.90;;;;;;5063112;28;20017;-71
2021/10/24 05:31:02;;;;;;;2.72;1.75;;;6.00;99.90;;;;;;5063368;28;20024;-70
2021/10/24 05:33:28;;;;;;;0.70;0.63;;;6.00;99.90;;;;;;5068730;28;20025;-71
2021/10/24 05:35:54;;;;;;;0.55;0.55;;;6.00;99.90;;;;;;5060727;28;20028;-70
2021/10/24 05:38:21;;;;;;;0.10;0.10;;;5.90;99.90;;;;;;5062033;28;20060;-71
2021/10/24 05:40:48;;;;;;;1.15;1.15;;;5.80;99.90;;;;;;5061556;28;20109;-71
2021/10/24 05:43:14;;;;;;;2.83;2.00;;;5.80;99.90;;;;;;5070161;28;20059;-71
2021/10/24 05:45:43;;;;;;;2.45;1.75;;;5.70;99.90;;;;;;5061626;28;20067;-71
2021/10/24 05:48:08;;;;;;;1.90;1.80;;;5.70;99.90;;;;;;5063614;28;20052;-70
2021/10/24 05:50:34;;;;;;;0.28;0.28;;;5.70;99.90;;;;;;5056893;28;20053;-70
2021/10/24 05:52:59;;;;;;;0.80;0.65;;;5.70;99.90;;;;;;5065898;28;20028;-71
2021/10/24 05:55:25;;;;;;;1.70;1.08;;;5.70;99.90;;;;;;5067298;28;20038;-70
2021/10/24 05:57:50;;;;;;;0.68;0.68;;;5.60;99.90;;;;;;5067333;28;20044;-70
2021/10/24 06:00:16;;;;;;;0.40;0.40;;;5.70;99.90;;;;;;5064718;28;20047;-71
2021/10/24 06:02:41;;;;;;;0.20;0.20;;;5.70;99.90;;;;;;5066159;28;20016;-71
2021/10/24 06:05:07;;;;;;;1.40;1.23;;;5.70;99.90;;;;;;5061366;28;20060;-71
2021/10/24 06:07:33;;;;;;;1.30;1.20;;;5.70;99.90;;;;;;5059034;28;20028;-70
2021/10/24 06:10:12;;;;;;;1.25;0.82;;;5.60;99.90;;;;;;5061861;28;20108;-70
2021/10/24 06:15:05;;;;;;;0.55;0.55;;;5.60;99.90;;;;;;5069148;28;20054;-70
2021/10/24 06:17:31;;;;;;;0.70;0.70;;;5.60;99.90;;;;;;5065555;28;20088;-71
2021/10/24 06:19:57;;;;;;;0.60;0.60;;;5.60;99.90;;;;;;5064364;28;20576;-70
2021/10/24 06:22:22;;;;;;;1.58;1.33;;;5.60;99.90;;;;;;5069242;28;20056;-71
2021/10/24 06:24:48;;;;;;;5.25;3.25;;;5.70;99.90;;;;;;5056952;28;20495;-71
2021/10/24 06:27:13;;;;;;;0.65;0.65;;;5.70;99.90;;;;;;5066262;28;20049;-71
2021/10/24 06:29:39;;;;;;;1.17;0.70;;;5.70;99.90;;;;;;5058051;28;20041;-71
2021/10/24 06:32:06;;;;;;;3.92;1.92;;;5.70;99.90;;;;;;5064512;28;20033;-70
2021/10/24 06:34:31;;;;;;;13.73;2.70;;;5.80;99.90;;;;;;5059312;28;20030;-70
2021/10/24 06:36:57;;;;;;;0.70;0.70;;;5.80;99.90;;;;;;5057922;28;20039;-71
2021/10/24 06:39:23;;;;;;;3.40;1.77;;;5.80;99.90;;;;;;5058210;28;20018;-71
2021/10/24 06:41:49;;;;;;;4.22;2.38;;;5.80;99.90;;;;;;5061623;28;20024;-71
2021/10/24 06:44:14;;;;;;;2.72;0.90;;;5.90;99.90;;;;;;5057672;28;20040;-71
2021/10/24 06:46:40;;;;;;;2.30;2.10;;;5.90;99.90;;;;;;5062308;28;20107;-70
2021/10/24 06:49:06;;;;;;;0.60;0.60;;;6.00;99.90;;;;;;5066074;28;20036;-72
2021/10/24 06:51:32;;;;;;;0.50;0.50;;;6.00;99.90;;;;;;5067388;28;20108;-71
2021/10/24 06:53:58;;;;;;;0.38;0.35;;;6.10;99.90;;;;;;5069308;28;20046;-71
2021/10/24 06:56:23;;;;;;;0.50;0.50;;;6.10;99.90;;;;;;5053230;28;20033;-70
2021/10/24 06:58:49;;;;;;;0.60;0.55;;;6.10;99.90;;;;;;5053358;28;20029;-71
2021/10/24 07:01:14;;;;;;;1.80;1.52;;;6.20;99.90;;;;;;5067477;28;20108;-72
2021/10/24 07:03:40;;;;;;;5.35;1.05;;;6.20;99.90;;;;;;5061643;28;20021;-72
2021/10/24 07:06:05;;;;;;;0.90;0.90;;;6.30;99.90;;;;;;5061228;28;20468;-72
2021/10/24 07:08:31;;;;;;;0.45;0.38;;;6.40;99.90;;;;;;5053497;28;20071;-72
2021/10/24 07:10:56;;;;;;;0.93;0.40;;;6.50;99.90;;;;;;5059849;28;20040;-72
2021/10/24 07:13:22;;;;;;;0.40;0.40;;;6.60;99.90;;;;;;5063624;28;20063;-72
2021/10/24 07:15:47;;;;;;;0.40;0.40;;;6.70;99.90;;;;;;5061854;28;20471;-72
2021/10/24 07:18:13;;;;;;;3.40;1.65;;;6.70;99.90;;;;;;5061285;28;20028;-71
2021/10/24 07:20:41;;;;;;;0.65;0.65;;;6.80;99.90;;;;;;5061838;28;20745;-72
2021/10/24 07:23:07;;;;;;;1.17;0.93;;;6.80;99.90;;;;;;5064356;28;20120;-73
2021/10/24 07:25:32;;;;;;;0.30;0.30;;;6.80;99.90;;;;;;5062251;28;20040;-72
2021/10/24 07:27:58;;;;;;;0.60;0.60;;;6.90;99.90;;;;;;5064502;28;20467;-72
2021/10/24 07:30:24;;;;;;;0.20;0.20;;;6.90;99.90;;;;;;5064845;28;20086;-72
2021/10/24 07:32:49;;;;;;;0.85;0.85;;;7.00;99.90;;;;;;5065190;28;20473;-72
2021/10/24 07:35:15;;;;;;;0.10;0.10;;;7.00;99.90;;;;;;5063805;28;20040;-72
2021/10/24 07:37:42;;;;;;;0.10;0.10;;;7.00;99.90;;;;;;5063842;28;20071;-72
2021/10/24 07:40:08;;;;;;;0.63;0.63;;;7.10;99.90;;;;;;5061118;28;20098;-72
2021/10/24 07:42:35;;;;;;;0.65;0.65;;;7.10;99.90;;;;;;5060919;28;20063;-72
2021/10/24 07:45:01;;;;;;;1.65;0.98;;;7.20;99.90;;;;;;5063110;28;20514;-72
2021/10/24 07:47:30;;;;;;;0.30;0.30;;;7.30;99.90;;;;;;5064688;28;20017;-72
2021/10/24 07:49:57;;;;;;;0.20;0.20;;;7.30;99.90;;;;;;5064368;28;20044;-73
2021/10/24 07:52:23;;;;;;;0.10;0.10;;;7.40;99.90;;;;;;5063071;28;20041;-72
2021/10/24 07:54:48;;;;;;;0.20;0.20;;;7.50;99.90;;;;;;5065853;28;20081;-72
2021/10/24 07:57:14;;;;;;;0.52;0.52;;;7.60;99.90;;;;;;5062764;28;20434;-72
2021/10/24 07:59:39;;;;;;;4.20;1.75;;;7.70;99.90;;;;;;5062600;28;21195;-72
2021/10/24 08:02:06;;;;;;;0.35;0.35;;;7.80;99.90;;;;;;5059501;28;20433;-72
2021/10/24 08:04:35;;;;;;;0.70;0.70;;;7.90;99.90;;;;;;5062391;28;20115;-72
2021/10/24 08:07:03;;;;;;;0.63;0.63;;;8.00;99.90;;;;;;5060985;28;20021;-73
2021/10/24 08:09:30;;;;;;;0.57;0.35;;;8.20;99.90;;;;;;5063408;28;20438;-72
2021/10/24 08:11:57;;;;;;;1.25;0.63;;;8.30;99.90;;;;;;5061817;28;20028;-72
2021/10/24 08:14:23;;;;;;;0.43;0.43;;;8.40;99.90;;;;;;5066757;28;20028;-72
2021/10/24 08:16:49;;;;;;;0.90;0.90;;;8.50;99.90;;;;;;5063464;28;20029;-72
2021/10/24 08:19:14;;;;;;;0.17;0.17;;;8.60;99.90;;;;;;5065478;28;20306;-72
2021/10/24 08:21:40;;;;;;;2.30;2.10;;;8.70;99.90;;;;;;5066467;28;20025;-73
2021/10/24 08:24:06;;;;;;;10.07;2.15;;;8.80;99.90;;;;;;5059516;28;20041;-75
2021/10/24 08:26:32;;;;;;;0.50;0.50;;;8.90;99.90;;;;;;5057792;28;20021;-76
2021/10/24 08:28:58;;;;;;;1.45;0.95;;;9.00;99.90;;;;;;5050338;28;20225;-72
2021/10/24 08:31:28;;;;;;;2.03;0.77;;;9.10;99.90;;;;;;5051132;28;20025;-73
2021/10/24 08:33:54;;;;;;;0.10;0.10;;;9.20;99.90;;;;;;5049721;28;20051;-73
2021/10/24 08:36:21;;;;;;;4.15;1.45;;;9.30;99.90;;;;;;5050221;28;20409;-72
2021/10/24 08:38:48;;;;;;;0.57;0.57;;;9.40;99.90;;;;;;5054160;28;20076;-72
2021/10/24 08:41:13;;;;;;;0.20;0.20;;;9.50;99.90;;;;;;5049939;28;20056;-72
2021/10/24 08:43:40;;;;;;;0.50;0.50;;;9.60;99.90;;;;;;5052312;28;20492;-72
2021/10/24 08:46:06;;;;;;;0.35;0.35;;;9.60;99.90;;;;;;5051277;28;20037;-72
2021/10/24 08:48:34;;;;;;;1.52;1.02;;;9.70;99.90;;;;;;5053157;28;20032;-71
2021/10/24 08:51:00;;;;;;;0.17;0.17;;;9.80;99.90;;;;;;5053633;28;20174;-73
2021/10/24 08:53:27;;;;;;;0.20;0.20;;;9.90;99.90;;;;;;5052353;28;20033;-72
2021/10/24 08:55:54;;;;;;;0.73;0.30;;;10.00;99.90;;;;;;5049782;28;20033;-72
2021/10/24 08:58:20;;;;;;;0.20;0.20;;;10.00;99.90;;;;;;5052637;28;20033;-72
2021/10/24 09:00:46;;;;;;;0.40;0.40;;;10.10;99.90;;;;;;5051630;28;20041;-72
2021/10/24 09:03:12;;;;;;;0.93;0.93;;;10.10;99.90;;;;;;5053231;28;20053;-72
2021/10/24 09:05:45;;;;;;;5.75;1.27;;;10.20;99.90;;;;;;5050324;28;20422;-72
2021/10/24 09:08:16;;;;;;;0.28;0.28;;;10.20;99.90;;;;;;5051595;28;20066;-72
2021/10/24 09:10:54;;;;;;;0.43;0.43;;;10.30;99.90;;;;;;5052719;28;20033;-71
2021/10/24 09:13:22;;;;;;;0.75;0.75;;;10.40;99.90;;;;;;5051176;28;20032;-75
2021/10/24 09:15:55;;;;;;;1.25;0.95;;;10.40;99.90;;;;;;5050051;28;20056;-71
2021/10/24 09:18:31;;;;;;;2.38;1.35;;;10.50;99.90;;;;;;5051641;28;20040;-70
2021/10/24 09:21:18;;;;;;;0.60;0.60;;;10.60;99.90;;;;;;5050730;28;20036;-69
2021/10/24 09:23:44;;;;;;;0.88;0.63;;;10.70;99.90;;;;;;5051041;28;20769;-68
2021/10/24 09:26:22;;;;;;;0.68;0.68;;;10.70;99.90;;;;;;5068847;28;20112;-68
2021/10/24 09:29:06;;;;;;;1.38;1.15;;;10.70;99.90;;;;;;5058086;28;20029;-69
2021/10/24 09:31:33;;;;;;;0.20;0.20;;;10.80;99.90;;;;;;5056812;28;20017;-68
2021/10/24 09:34:19;;;;;;;2.40;0.63;;;10.80;99.90;;;;;;5065161;28;20021;-69
2021/10/24 09:36:59;;;;;;;3.60;1.55;;;10.90;99.90;;;;;;5063122;28;21440;-69
2021/10/24 09:39:29;;;;;;;0.00;0.00;;;10.80;99.90;;;;;;5065866;28;20033;-68
2021/10/24 09:42:26;;;;;;;0.57;0.57;;;10.80;99.90;;;;;;5066436;28;20088;-69
2021/10/24 09:45:11;;;;;;;0.80;0.60;;;10.90;99.90;;;;;;5057524;28;20066;-70
2021/10/24 09:47:46;;;;;;;0.30;0.30;;;11.00;99.70;;;;;;5067398;28;20040;-73
2021/10/24 09:50:32;;;;;;;5.20;1.48;;;11.00;99.10;;;;;;5062805;28;20036;-71
2021/10/24 09:53:16;;;;;;;0.10;0.10;;;11.10;98.20;;;;;;5066031;28;20107;-69
2021/10/24 09:55:44;;;;;;;0.63;0.63;;;11.20;98.30;;;;;;5065605;28;20116;-69
2021/10/24 09:58:14;;;;;;;1.65;0.43;;;11.30;98.50;;;;;;5064476;28;20047;-71
2021/10/24 10:00:44;;;;;;;0.50;0.32;;;11.40;98.40;;;;;;5065977;28;20076;-71
2021/10/24 10:03:09;;;;;;;1.02;0.32;;;11.50;97.30;;;;;;5065662;28;20025;-71
2021/10/24 10:05:36;;;;;;;0.25;0.25;;;11.60;97.20;;;;;;5064988;28;20028;-71
2021/10/24 10:08:02;;;;;;;2.22;1.17;;;11.70;96.20;;;;;;5065725;28;20115;-71
2021/10/24 10:10:30;;;;;;;0.47;0.45;;;11.70;96.00;;;;;;5063337;28;20032;-71
2021/10/24 10:13:00;;;;;;;1.42;0.98;;;11.70;95.60;;;;;;5062909;28;20103;-74
2021/10/24 10:15:31;;;;;;;0.80;0.22;;;11.80;96.00;;;;;;5053127;28;20036;-73
2021/10/24 10:18:00;;;;;;;0.00;0.00;;;12.00;96.10;;;;;;5065380;28;20025;-74
2021/10/24 10:20:28;;;;;;;0.45;0.43;;;12.20;95.20;;;;;;5063847;28;20040;-78
2021/10/24 10:23:09;;;;;;;0.00;0.00;;;12.20;94.20;;;;;;5059569;28;20423;-75
2021/10/24 10:25:37;;;;;;;0.50;0.50;;;12.30;94.30;;;;;;5062216;28;20499;-73
2021/10/24 10:28:04;;;;;;;0.50;0.50;;;12.40;94.30;;;;;;5048978;28;20507;-73
2021/10/24 10:30:42;;;;;;;1.77;0.90;;;12.60;93.00;;;;;;5067209;28;20040;-74
2021/10/24 10:33:30;;;;;;;0.47;0.30;;;12.60;93.00;;;;;;5059888;28;20032;-72
2021/10/24 10:35:56;;;;;;;0.15;0.15;;;12.70;92.10;;;;;;5064793;28;20024;-72
2021/10/24 10:38:38;;;;;;;0.15;0.15;;;12.80;92.50;;;;;;5065802;28;20024;-73
2021/10/24 10:41:06;;;;;;;0.35;0.35;;;13.00;92.50;;;;;;5065190;28;20560;-73
2021/10/24 10:43:32;;;;;;;0.10;0.10;;;13.20;91.50;;;;;;5066064;28;20036;-72
2021/10/24 10:46:02;;;;;;;0.03;0.03;;;13.40;88.00;;;;;;5063952;28;20044;-72
2021/10/24 10:48:41;;;;;;;0.00;0.00;;;13.50;87.40;;;;;;5067045;28;20036;-72
2021/10/24 10:51:16;;;;;;;0.98;0.70;;;13.70;84.30;;;;;;5066798;28;20074;-72
2021/10/24 10:53:44;;;;;;;0.20;0.20;;;13.80;83.80;;;;;;5068549;28;20457;-72
2021/10/24 10:56:16;;;;;;;1.15;0.30;;;13.90;81.90;;;;;;5061428;28;20407;-72
2021/10/24 10:58:43;;;;;;;;;;;14.00;81.90;;;;;;5063445;28;20025;-72
2021/10/24 11:01:57;;;;;;;0.05;0.05;;;14.10;81.30;;;;;;5065392;28;19912;-71
2021/10/24 11:04:22;;;;;;;17.25;0.90;;;14.30;81.40;;;;;;5026210;28;20029;-70
2021/10/24 11:06:56;;;;;;;0.30;0.30;;;14.50;79.70;;;;;;5054888;28;20028;-70
2021/10/24 11:09:57;;;;;;;1.02;0.90;;;14.70;77.50;;;;;;5056244;28;20020;-71
2021/10/24 11:12:43;;;;;;;0.77;0.77;;;14.70;77.00;;;;;;4958201;28;20302;-70
2021/10/24 11:15:14;;;;;;;0.32;0.32;;;14.90;76.50;;;;;;5041603;28;20041;-70
2021/10/24 11:17:48;;;;;;;8.88;0.98;;;15.00;75.00;;;;;;5056801;28;20048;-71
2021/10/24 11:20:19;;;;;;;0.55;0.22;;;15.20;73.60;;;;;;5057718;28;20804;-70
2021/10/24 11:22:54;;;;;;;0.30;0.30;;;15.30;71.90;;;;;;5061068;28;20407;-70
2021/10/24 11:25:24;;;;;;;0.20;0.13;;;15.50;71.40;;;;;;5055488;28;20127;-70
2021/10/24 11:27:50;;;;;;;0.52;0.50;;;15.80;71.40;;;;;;5051370;28;20033;-70
2021/10/24 11:30:17;;;;;;;0.45;0.45;;;16.00;70.10;;;;;;5051608;28;20403;-70
2021/10/24 11:32:43;;;;;;;0.00;0.00;;;16.30;68.80;;;;;;5058153;28;20491;-70
2021/10/24 11:35:09;;;;;;;0.65;0.40;;;16.50;66.70;;;;;;5062393;28;20032;-70
2021/10/24 11:37:40;;;;;;;0.35;0.32;;;16.70;66.80;;;;;;5057724;28;20154;-70
2021/10/24 11:40:09;;;;;;;;;;;16.90;67.00;;;;;;5051065;28;20082;-70
2021/10/24 11:42:36;;;;;;;0.10;0.10;;;17.10;64.60;;;;;;5056107;28;19940;-70
2021/10/24 11:45:17;;;;;;;0.00;0.00;;;17.10;64.10;;;;;;5052755;28;20533;-71
2021/10/24 11:48:06;;;;;;;0.43;0.43;;;16.90;62.90;;;;;;5056895;28;20083;-70
2021/10/24 11:50:37;;;;;;;0.10;0.10;;;16.70;62.20;;;;;;5059064;28;20097;-70
2021/10/24 11:53:04;;;;;;;0.80;0.50;;;16.60;63.10;;;;;;5056455;28;20020;-71
2021/10/24 11:55:29;;;;;;;2.15;1.58;;;16.40;62.90;;;;;;5053733;28;20032;-71
2021/10/24 11:58:05;;;;;;;0.77;0.60;;;16.40;64.20;;;;;;5052044;28;20041;-71
2021/10/24 12:03:12;;;;;;;0.90;0.13;;;16.30;65.50;;;;;;5057190;28;20021;-71
2021/10/24 12:05:38;;;;;;;0.20;0.05;;;16.10;64.40;;;;;;5042214;28;20086;-71
2021/10/24 12:08:04;;;;;;;1.52;1.08;;;16.00;65.10;;;;;;5058522;28;20039;-70
2021/10/24 12:10:34;;;;;;;6.93;1.05;;;16.00;65.40;;;;;;5054222;28;20025;-71
2021/10/24 12:13:02;;;;;;;0.00;0.00;;;15.90;65.50;;;;;;5053384;28;20090;-71
2021/10/24 12:15:39;;;;;;;1.15;0.60;;;16.00;66.60;;;;;;5051601;28;20033;-71
2021/10/24 12:18:16;;;;;;;0.17;0.17;;;16.00;67.00;;;;;;5049979;28;20074;-71
2021/10/24 12:21:02;;;;;;;0.28;0.28;;;15.90;64.20;;;;;;5056928;28;20112;-70
2021/10/24 12:23:31;;;;;;;0.20;0.20;;;16.00;66.90;;;;;;5055617;28;20029;-71
2021/10/24 12:26:00;;;;;;;0.20;0.20;;;16.00;65.50;;;;;;5054086;28;20082;-69
2021/10/24 12:28:32;;;;;;;0.63;0.47;;;16.00;64.00;;;;;;5054510;28;20479;-71
2021/10/24 12:31:05;;;;;;;0.10;0.10;;;16.10;65.30;;;;;;5057695;28;20039;-72
2021/10/24 12:33:42;;;;;;;0.32;0.32;;;16.40;63.10;;;;;;5050508;28;20044;-71
2021/10/24 12:36:10;;;;;;;0.85;0.50;;;16.60;62.30;;;;;;5052553;28;20021;-72
2021/10/24 12:38:58;;;;;;;3.00;1.10;;;16.70;60.00;;;;;;5052839;28;20134;-71
2021/10/24 12:41:37;;;;;;;0.10;0.10;;;16.50;60.10;;;;;;5051090;28;20028;-71
2021/10/24 12:44:05;;;;;;;1.38;0.63;;;16.50;59.50;;;;;;5061781;28;20025;-71
2021/10/24 12:46:33;;;;;;;0.20;0.20;;;16.50;61.40;;;;;;5053344;28;20028;-71
2021/10/24 12:49:09;;;;;;;0.50;0.50;;;16.70;59.60;;;;;;5058065;28;20034;-71
2021/10/24 12:51:34;;;;;;;0.05;0.03;;;17.10;59.10;;;;;;5060683;28;20039;-71
2021/10/24 12:54:02;;;;;;;0.10;0.10;;;17.70;58.40;;;;;;5073101;28;20118;-70
2021/10/24 12:56:29;;;;;;;0.40;0.40;;;18.40;56.10;;;;;;5064021;28;20028;-70
2021/10/24 12:58:55;;;;;;;2.60;0.68;;;19.10;54.70;;;;;;5066545;28;20055;-70
2021/10/24 13:01:25;;;;;;;0.28;0.28;;;19.70;53.60;;;;;;5068459;28;20024;-70
2021/10/24 13:03:52;;;;;;;0.30;0.30;;;20.20;52.00;;;;;;5068500;28;20490;-70